Time;durP1;ratioP1;P1;durP2;ratioP2;P2;SDS_P1;SDS_P2;PMS_P1;PMS_P2;Temp;Humidity;BMP_temperature;BMP_pressure;BME280_temperature;BME280_humidity;BME280_pressure;Samples;Min_cycle;Max_cycle;Signal;HPM_P1;HPM_P2
2022/05/05 00:00:45;;;;;;;25.88;23.42;;;;;;;9.06;100.00;99249.88;2033203;29;20541;-73
2022/05/05 00:01:46;;;;;;;27.00;24.17;;;;;;;9.04;100.00;99244.03;2025770;29;20338;-72
2022/05/05 00:02:48;;;;;;;26.83;24.08;;;;;;;9.02;100.00;99240.84;2025515;29;20188;-72
2022/05/05 00:03:49;;;;;;;26.52;23.92;;;;;;;9.02;100.00;99245.38;2026085;29;20247;-72
2022/05/05 00:04:50;;;;;;;25.60;23.10;;;;;;;9.01;100.00;99249.91;2026209;29;20203;-72
2022/05/05 00:05:54;;;;;;;26.75;24.10;;;;;;;8.99;100.00;99245.94;2025592;29;20207;-70
2022/05/05 00:06:58;;;;;;;28.60;23.83;;;;;;;8.98;100.00;99247.81;2026178;29;20724;-72
2022/05/05 00:07:59;;;;;;;26.52;23.83;;;;;;;8.98;100.00;99247.00;2026188;29;20671;-73
2022/05/05 00:09:01;;;;;;;25.07;22.57;;;;;;;8.95;100.00;99240.41;2025416;29;20652;-72
2022/05/05 00:14:23;;;;;;;26.25;23.55;;;;;;;8.95;100.00;99244.94;2017948;29;20272;-72
2022/05/05 00:14:27;;;;;;;25.50;22.98;;;;;;;8.92;100.00;99251.59;2026745;29;20228;-72
2022/05/05 00:15:28;;;;;;;25.92;23.35;;;;;;;8.91;100.00;99250.00;2021928;29;20188;-72
2022/05/05 00:16:30;;;;;;;24.77;22.55;;;;;;;8.89;100.00;99254.81;2026962;29;20678;-72
2022/05/05 00:17:33;;;;;;;26.50;23.35;;;;;;;8.86;100.00;99252.72;2026977;29;20367;-72
2022/05/05 00:18:36;;;;;;;26.05;23.38;;;;;;;8.86;100.00;99251.91;2027040;29;20253;-72
2022/05/05 00:19:38;;;;;;;25.75;23.13;;;;;;;8.87;100.00;99256.19;2026774;29;20216;-72
2022/05/05 00:20:42;;;;;;;27.15;23.40;;;;;;;8.85;100.00;99256.44;2034096;29;20240;-73
2022/05/05 00:21:42;;;;;;;27.30;24.60;;;;;;;8.85;100.00;99252.97;2034325;29;20238;-72
2022/05/05 00:22:45;;;;;;;27.80;24.97;;;;;;;8.84;100.00;99259.38;2034202;29;20200;-72
2022/05/05 00:23:46;;;;;;;27.60;24.52;;;;;;;8.83;100.00;99263.09;2034699;29;20199;-72
2022/05/05 00:24:47;;;;;;;27.27;24.53;;;;;;;8.81;100.00;99255.41;2027515;29;20227;-72
2022/05/05 00:25:48;;;;;;;26.70;24.13;;;;;;;8.80;100.00;99253.03;2026820;29;20200;-73
2022/05/05 00:26:50;;;;;;;27.33;24.37;;;;;;;8.78;100.00;99251.44;2027174;29;20207;-72
2022/05/05 00:27:53;;;;;;;28.45;24.27;;;;;;;8.76;100.00;99255.44;2034540;29;20195;-72
2022/05/05 00:28:55;;;;;;;26.85;24.20;;;;;;;8.76;100.00;99255.44;2034377;29;20686;-72
2022/05/05 00:29:58;;;;;;;25.95;23.60;;;;;;;8.76;100.00;99263.44;2034749;29;20203;-72
2022/05/05 00:30:59;;;;;;;27.08;24.30;;;;;;;8.73;100.00;99253.34;2027538;29;20220;-73
2022/05/05 00:32:01;;;;;;;27.60;24.67;;;;;;;8.73;100.00;99256.00;2033211;29;20227;-72
2022/05/05 00:33:02;;;;;;;26.90;24.15;;;;;;;8.73;100.00;99269.31;2043075;29;20261;-73
2022/05/05 00:34:03;;;;;;;27.43;24.30;;;;;;;8.75;100.00;99264.50;2043033;29;20199;-73
2022/05/05 00:35:07;;;;;;;27.17;24.42;;;;;;;8.74;100.00;99263.72;2043043;29;20222;-72
2022/05/05 00:36:09;;;;;;;27.20;24.40;;;;;;;8.73;100.00;99271.97;2042531;29;20246;-72
2022/05/05 00:37:10;;;;;;;27.35;24.00;;;;;;;8.71;100.00;99260.81;2043111;29;20175;-72
2022/05/05 00:38:13;;;;;;;27.23;24.13;;;;;;;8.68;100.00;99267.47;2043091;29;20199;-72
2022/05/05 00:39:14;;;;;;;27.33;24.42;;;;;;;8.67;100.00;99265.09;2042093;29;20233;-72
2022/05/05 00:40:16;;;;;;;27.17;24.20;;;;;;;8.66;100.00;99258.19;2042376;29;20225;-72
2022/05/05 00:41:17;;;;;;;26.73;22.58;;;;;;;8.60;100.00;99256.63;2043036;29;20295;-72
2022/05/05 00:42:22;;;;;;;26.08;23.48;;;;;;;8.61;100.00;99256.38;2042225;29;20552;-72
2022/05/05 00:43:24;;;;;;;25.73;23.23;;;;;;;8.57;100.00;99258.00;2042455;29;20195;-73
2022/05/05 00:44:26;;;;;;;26.10;23.52;;;;;;;8.55;100.00;99259.34;2034420;29;20694;-72
2022/05/05 00:45:27;;;;;;;25.75;22.90;;;;;;;8.54;100.00;99255.91;2034720;29;20196;-72
2022/05/05 00:46:29;;;;;;;25.63;23.23;;;;;;;8.52;100.00;99257.25;2042974;29;20226;-72
2022/05/05 00:47:29;;;;;;;26.98;24.30;;;;;;;8.49;100.00;99264.69;2042953;29;20210;-72
2022/05/05 00:48:33;;;;;;;30.87;25.50;;;;;;;8.48;100.00;99257.78;2042894;29;20278;-73
2022/05/05 00:49:34;;;;;;;27.38;24.45;;;;;;;8.45;100.00;99258.34;2034330;29;20694;-72
2022/05/05 00:50:37;;;;;;;26.33;23.50;;;;;;;8.41;100.00;99257.31;2034395;29;20560;-72
2022/05/05 00:51:39;;;;;;;34.40;25.42;;;;;;;8.40;100.00;99255.72;2041993;29;20233;-72
2022/05/05 00:52:41;;;;;;;29.08;26.00;;;;;;;8.37;100.00;99255.50;2042894;29;20721;-72
2022/05/05 00:53:42;;;;;;;27.25;24.52;;;;;;;8.37;100.00;99258.94;2042822;29;20254;-73
2022/05/05 00:54:45;;;;;;;27.47;24.57;;;;;;;8.36;100.00;99259.22;2042291;29;20254;-72
2022/05/05 00:55:51;;;;;;;27.58;24.67;;;;;;;8.33;100.00;99257.84;2042303;29;20199;-73
2022/05/05 00:56:54;;;;;;;27.95;24.92;;;;;;;8.30;100.00;99261.06;2042876;29;20271;-72
2022/05/05 00:57:56;;;;;;;28.25;25.20;;;;;;;8.30;100.00;99261.06;2042831;29;20195;-72
2022/05/05 00:59:01;;;;;;;27.95;24.92;;;;;;;8.30;100.00;99261.06;2042846;29;20203;-72
2022/05/05 01:00:03;;;;;;;26.70;23.90;;;;;;;8.31;100.00;99256.56;2043074;29;20203;-73
2022/05/05 01:01:06;;;;;;;27.65;24.70;;;;;;;8.31;100.00;99257.34;2033959;29;20203;-72
2022/05/05 01:02:07;;;;;;;28.25;24.25;;;;;;;8.30;100.00;99254.97;2034409;29;20228;-72
2022/05/05 01:03:11;;;;;;;26.38;23.92;;;;;;;8.31;100.00;99256.56;2042258;29;20681;-73
2022/05/05 01:04:13;;;;;;;27.60;24.42;;;;;;;8.29;100.00;99254.16;2034306;29;20223;-73
2022/05/05 01:05:14;;;;;;;27.17;24.48;;;;;;;8.28;100.00;99254.44;2034589;29;20234;-72
2022/05/05 01:06:17;;;;;;;26.23;23.40;;;;;;;8.25;100.00;99250.47;2042522;29;20250;-72
2022/05/05 01:07:18;;;;;;;27.05;24.23;;;;;;;8.23;100.00;99249.94;2042787;29;20172;-72
2022/05/05 01:08:20;;;;;;;29.05;23.25;;;;;;;8.19;100.00;99251.59;2042812;29;20273;-73
2022/05/05 01:09:22;;;;;;;25.38;22.13;;;;;;;8.19;100.00;99254.25;2042961;29;20191;-72
2022/05/05 01:10:25;;;;;;;28.55;22.92;;;;;;;8.17;100.00;99254.53;2042733;29;20604;-72
2022/05/05 01:11:30;;;;;;;24.88;22.30;;;;;;;8.15;100.00;99250.53;2042640;29;20211;-73
2022/05/05 01:12:37;;;;;;;24.90;22.20;;;;;;;8.16;100.00;99255.56;2043016;29;20184;-72
2022/05/05 01:13:39;;;;;;;25.05;22.75;;;;;;;8.15;100.00;99250.53;2042698;29;20195;-72
2022/05/05 01:14:42;;;;;;;24.92;22.17;;;;;;;8.15;100.00;99253.19;2042716;29;20658;-73
2022/05/05 01:15:43;;;;;;;24.58;22.13;;;;;;;8.14;100.00;99254.25;2042718;29;20203;-72
2022/05/05 01:16:45;;;;;;;23.48;21.33;;;;;;;8.13;100.00;99252.66;2034148;29;20287;-72
2022/05/05 01:17:46;;;;;;;23.75;21.30;;;;;;;8.14;100.00;99248.94;2034469;29;20557;-72
2022/05/05 01:18:48;;;;;;;26.00;21.70;;;;;;;8.13;100.00;99250.81;2042005;29;20199;-72
2022/05/05 01:19:52;;;;;;;24.08;21.77;;;;;;;8.14;100.00;99260.38;2042007;29;20198;-72
2022/05/05 01:20:54;;;;;;;23.13;20.90;;;;;;;8.13;100.00;99255.31;2041481;29;20201;-71
2022/05/05 01:21:57;;;;;;;24.48;21.98;;;;;;;8.11;100.00;99262.78;2041950;29;20705;-72
2022/05/05 01:22:59;;;;;;;26.40;22.88;;;;;;;8.08;100.00;99258.81;2034146;29;20195;-72
2022/05/05 01:24:00;;;;;;;24.27;22.00;;;;;;;8.07;100.00;99257.22;2034399;29;20631;-72
2022/05/05 01:29:08;;;;;;;26.42;23.73;;;;;;;7.96;100.00;99260.22;2039603;29;20689;-72
2022/05/05 01:30:11;;;;;;;25.00;22.48;;;;;;;7.96;100.00;99261.00;2042605;29;20191;-72
2022/05/05 01:31:13;;;;;;;25.88;23.10;;;;;;;7.95;100.00;99259.41;2042566;29;20211;-72
2022/05/05 01:32:14;;;;;;;26.63;23.85;;;;;;;7.94;100.00;99255.97;2033521;29;20756;-72
2022/05/05 01:33:18;;;;;;;25.40;22.83;;;;;;;7.92;100.00;99250.13;2034027;29;20689;-72
2022/05/05 01:34:19;;;;;;;26.92;23.38;;;;;;;7.91;100.00;99255.72;2033962;29;20567;-72
2022/05/05 01:35:21;;;;;;;25.97;22.77;;;;;;;7.91;100.00;99258.38;2033958;29;20247;-72
2022/05/05 01:36:23;;;;;;;25.00;22.55;;;;;;;7.89;100.00;99257.84;2033530;29;20230;-73
2022/05/05 01:37:25;;;;;;;25.50;22.90;;;;;;;7.88;100.00;99251.72;2034182;29;20196;-73
2022/05/05 01:38:35;;;;;;;24.90;22.70;;;;;;;7.90;100.00;99267.41;2042569;29;20194;-73
2022/05/05 01:39:36;;;;;;;26.20;23.45;;;;;;;7.89;100.00;99271.91;2033994;29;20195;-72
2022/05/05 01:40:39;;;;;;;24.50;22.20;;;;;;;7.90;100.00;99262.88;2034053;29;20194;-72
2022/05/05 01:41:41;;;;;;;24.27;21.88;;;;;;;7.92;100.00;99260.75;2033900;29;20200;-72
2022/05/05 01:42:42;;;;;;;25.10;22.45;;;;;;;7.92;100.00;99266.06;2034193;29;20675;-73
2022/05/05 01:43:47;;;;;;;25.20;22.80;;;;;;;7.91;100.00;99261.84;2041785;29;20763;-72
2022/05/05 01:44:48;;;;;;;24.83;22.30;;;;;;;7.92;100.00;99260.75;2041852;29;20669;-72
2022/05/05 01:45:50;;;;;;;23.80;21.58;;;;;;;7.92;100.00;99266.06;2034150;29;20255;-72
2022/05/05 01:46:52;;;;;;;25.48;22.45;;;;;;;7.90;100.00;99262.09;2034067;29;20612;-72
2022/05/05 01:47:56;;;;;;;24.67;22.23;;;;;;;7.92;100.00;99268.72;2042404;29;20270;-73
2022/05/05 01:48:58;;;;;;;24.27;21.58;;;;;;;7.92;100.00;99266.06;2033840;29;20208;-72
2022/05/05 01:49:59;;;;;;;25.23;22.80;;;;;;;7.91;100.00;99269.00;2041749;29;20199;-72
2022/05/05 01:51:02;;;;;;;27.13;22.13;;;;;;;7.91;100.00;99269.00;2049093;29;20199;-72
2022/05/05 01:52:07;;;;;;;25.20;22.67;;;;;;;7.91;100.00;99269.00;2042429;29;20655;-72
2022/05/05 01:53:11;;;;;;;25.83;23.25;;;;;;;7.91;100.00;99269.81;2042613;29;20210;-72
2022/05/05 01:54:13;;;;;;;26.38;23.30;;;;;;;7.90;100.00;99262.88;2042323;29;20202;-72
2022/05/05 01:55:15;;;;;;;25.90;23.25;;;;;;;7.87;100.00;99268.75;2042341;29;20215;-72
2022/05/05 01:56:16;;;;;;;26.95;24.45;;;;;;;7.89;100.00;99269.25;2041469;29;20238;-72
2022/05/05 01:57:18;;;;;;;26.80;23.93;;;;;;;7.85;100.00;99267.44;2041766;29;20729;-72
2022/05/05 01:58:22;;;;;;;27.13;24.25;;;;;;;7.86;100.00;99266.38;2042526;29;20208;-72
2022/05/05 01:59:23;;;;;;;26.35;23.35;;;;;;;7.83;100.00;99262.41;2042331;29;20286;-72
2022/05/05 02:00:28;;;;;;;27.33;24.40;;;;;;;7.79;100.00;99264.00;2041283;29;20694;-72
2022/05/05 02:01:29;;;;;;;27.20;24.42;;;;;;;7.76;100.00;99269.88;2041711;29;20283;-72
2022/05/05 02:02:30;;;;;;;27.25;24.35;;;;;;;7.71;100.00;99263.75;2042579;29;20254;-72
2022/05/05 02:03:31;;;;;;;28.80;25.80;;;;;;;7.65;100.00;99265.66;2042503;29;20198;-72
2022/05/05 02:04:33;;;;;;;28.57;25.53;;;;;;;7.62;100.00;99266.97;2042246;29;20197;-72
2022/05/05 02:05:34;;;;;;;26.80;24.13;;;;;;;7.59;100.00;99272.06;2042284;29;20191;-72
2022/05/05 02:06:36;;;;;;;26.77;23.80;;;;;;;7.54;100.00;99266.75;2033032;29;20690;-72
2022/05/05 02:07:38;;;;;;;36.85;24.30;;;;;;;7.49;100.00;99266.78;2033888;29;20725;-72
2022/05/05 02:08:41;;;;;;;34.45;23.98;;;;;;;7.45;100.00;99265.72;2041355;29;20665;-73
2022/05/05 02:09:42;;;;;;;26.65;24.00;;;;;;;7.44;100.00;99272.09;2041716;29;20194;-72
2022/05/05 02:10:44;;;;;;;26.23;23.43;;;;;;;7.39;100.00;99253.53;2033703;29;20299;-72
2022/05/05 02:11:47;;;;;;;26.40;23.65;;;;;;;7.44;100.00;99264.13;2033734;29;20386;-72
2022/05/05 02:12:53;;;;;;;27.98;25.00;;;;;;;7.42;100.00;99271.56;2040670;29;20294;-72
2022/05/05 02:13:54;;;;;;;29.85;24.90;;;;;;;7.38;100.00;99266.00;2041696;29;20202;-72
2022/05/05 02:14:56;;;;;;;30.90;25.33;;;;;;;7.35;100.00;99277.16;2042351;29;20646;-72
2022/05/05 02:15:59;;;;;;;26.58;23.90;;;;;;;7.35;100.00;99271.84;2042297;29;20222;-71
2022/05/05 02:17:00;;;;;;;27.95;23.23;;;;;;;7.36;100.00;99268.13;2042138;29;20753;-71
2022/05/05 02:18:10;;;;;;;31.58;24.45;;;;;;;7.35;100.00;99259.38;2032872;29;20211;-72
2022/05/05 02:19:12;;;;;;;28.58;23.75;;;;;;;7.38;100.00;99273.94;2033636;29;20774;-72
2022/05/05 02:20:15;;;;;;;29.92;23.73;;;;;;;7.41;100.00;99277.94;2033944;29;20199;-72
2022/05/05 02:21:17;;;;;;;26.80;24.10;;;;;;;7.41;100.00;99269.97;2033101;29;20231;-72
2022/05/05 02:22:19;;;;;;;32.00;23.33;;;;;;;7.41;100.00;99268.13;2033899;29;20666;-72
2022/05/05 02:23:20;;;;;;;27.40;22.88;;;;;;;7.43;100.00;99278.47;2042104;29;20250;-72
2022/05/05 02:24:23;;;;;;;27.47;22.97;;;;;;;7.45;100.00;99278.97;2042296;29;20237;-72
2022/05/05 02:25:24;;;;;;;26.35;23.55;;;;;;;7.44;100.00;99274.75;2042170;29;20199;-73
2022/05/05 02:26:27;;;;;;;27.57;23.53;;;;;;;7.45;100.00;99278.97;2033628;29;20195;-72
2022/05/05 02:27:28;;;;;;;26.95;24.10;;;;;;;7.45;100.00;99277.13;2033972;29;20566;-71
2022/05/05 02:28:33;;;;;;;31.00;24.80;;;;;;;7.46;100.00;99278.72;2042145;29;20195;-71
2022/05/05 02:29:34;;;;;;;29.02;24.23;;;;;;;7.44;100.00;99272.09;2042031;29;20215;-72
2022/05/05 02:30:35;;;;;;;34.17;25.13;;;;;;;7.41;100.00;99273.44;2032876;29;20203;-73
2022/05/05 02:31:36;;;;;;;34.08;23.67;;;;;;;7.37;100.00;99267.84;2025473;29;20225;-72
2022/05/05 02:32:39;;;;;;;27.43;23.90;;;;;;;7.40;100.00;99273.72;2033536;29;20785;-72
2022/05/05 02:33:43;;;;;;;26.95;23.98;;;;;;;7.39;100.00;99267.59;2041048;29;20227;-72
2022/05/05 02:34:45;;;;;;;28.77;24.48;;;;;;;7.37;100.00;99275.81;2041551;29;20556;-73
2022/05/05 02:38:42;;;;;;;26.92;23.77;;;;;;;7.34;100.00;99272.91;2042049;29;20193;-73
2022/05/05 02:38:46;;;;;;;26.75;24.05;;;;;;;7.34;100.00;99281.66;2041669;29;20616;-72
2022/05/05 02:39:48;;;;;;;27.42;24.65;;;;;;;7.33;100.00;99276.63;2042185;29;20186;-72
2022/05/05 02:40:51;;;;;;;31.75;24.63;;;;;;;7.31;100.00;99276.13;2042117;29;20187;-72
2022/05/05 02:41:52;;;;;;;29.70;24.15;;;;;;;7.31;100.00;99276.13;2040961;29;20544;-72
2022/05/05 02:42:55;;;;;;;29.27;24.50;;;;;;;7.32;100.00;99283.81;2033136;29;20247;-71
2022/05/05 02:43:59;;;;;;;28.25;24.45;;;;;;;7.31;100.00;99282.22;2033918;29;20199;-72
2022/05/05 02:45:00;;;;;;;29.13;23.67;;;;;;;7.31;100.00;99287.53;2033261;29;20596;-72
2022/05/05 02:46:02;;;;;;;27.43;24.57;;;;;;;7.30;100.00;99274.53;2033614;29;20192;-72
2022/05/05 02:47:04;;;;;;;25.65;23.15;;;;;;;7.27;100.00;99275.84;2042026;29;20195;-72
2022/05/05 02:48:10;;;;;;;31.48;23.52;;;;;;;7.30;100.00;99275.31;2042187;29;20238;-72
2022/05/05 02:49:13;;;;;;;29.33;23.77;;;;;;;7.27;100.00;99275.84;2042001;29;20199;-72
2022/05/05 02:50:15;;;;;;;24.75;22.42;;;;;;;7.31;100.00;99279.56;2042380;29;20195;-72
2022/05/05 02:51:17;;;;;;;31.95;23.60;;;;;;;7.32;100.00;99275.84;2038468;29;20678;-72
2022/05/05 02:52:17;;;;;;;27.85;22.85;;;;;;;7.34;100.00;99278.22;2033386;29;20204;-72
2022/05/05 02:54:50;;;;;;;28.52;23.52;;;;;;;7.40;100.00;99273.72;2028327;29;20180;-72
2022/05/05 02:55:52;;;;;;;24.98;22.50;;;;;;;7.46;100.00;99280.56;2034397;29;20183;-72
2022/05/05 02:56:53;;;;;;;26.17;23.17;;;;;;;7.46;100.00;99278.72;2034092;29;20226;-71
2022/05/05 02:57:57;;;;;;;29.20;23.17;;;;;;;7.47;100.00;99272.38;2034088;29;20193;-71
2022/05/05 02:58:58;;;;;;;25.90;23.13;;;;;;;7.45;100.00;99276.31;2034121;29;20432;-72
2022/05/05 03:00:00;;;;;;;29.27;23.20;;;;;;;7.47;100.00;99280.31;2034061;29;20230;-72
2022/05/05 03:01:01;;;;;;;25.63;22.98;;;;;;;7.44;100.00;99280.84;2034295;29;20663;-72
2022/05/05 03:02:04;;;;;;;25.97;22.93;;;;;;;7.44;100.00;99283.50;2032966;29;20538;-73
2022/05/05 03:03:05;;;;;;;29.73;21.92;;;;;;;7.40;100.00;99285.13;2025537;29;20215;-71
2022/05/05 03:04:08;;;;;;;24.30;20.57;;;;;;;7.40;100.00;99285.13;2025711;29;20203;-72
2022/05/05 03:05:09;;;;;;;27.38;22.45;;;;;;;7.41;100.00;99291.22;2034052;29;20192;-72
2022/05/05 03:06:11;;;;;;;27.73;21.55;;;;;;;7.40;100.00;99287.78;2033698;29;20192;-73
2022/05/05 03:07:12;;;;;;;26.00;21.98;;;;;;;7.42;100.00;99287.50;2025552;29;20212;-72
2022/05/05 03:08:16;;;;;;;23.07;20.57;;;;;;;7.43;100.00;99289.09;2025697;29;20216;-72
2022/05/05 03:09:18;;;;;;;26.30;23.00;;;;;;;7.42;100.00;99288.28;2034073;29;20203;-71
2022/05/05 03:10:20;;;;;;;25.35;22.65;;;;;;;7.44;100.00;99290.66;2025671;29;20729;-71
2022/05/05 03:11:22;;;;;;;28.92;22.83;;;;;;;7.41;100.00;99292.00;2025800;29;20203;-71
2022/05/05 03:12:24;;;;;;;33.13;23.13;;;;;;;7.42;100.00;99287.50;2034041;29;20226;-72
2022/05/05 03:13:25;;;;;;;26.23;22.80;;;;;;;7.41;100.00;99285.91;2033971;29;20199;-72
2022/05/05 03:14:28;;;;;;;30.93;23.93;;;;;;;7.44;100.00;99290.66;2033364;29;20295;-72
2022/05/05 03:15:31;;;;;;;27.42;24.10;;;;;;;7.46;100.00;99289.31;2033479;29;20191;-72
2022/05/05 03:16:32;;;;;;;25.73;23.10;;;;;;;7.47;100.00;99290.13;2034020;29;20659;-72
2022/05/05 03:17:34;;;;;;;27.80;23.13;;;;;;;7.50;100.00;99289.59;2033322;29;20674;-72
2022/05/05 03:18:40;;;;;;;25.52;22.77;;;;;;;7.52;100.00;99282.94;2033436;29;20338;-72
2022/05/05 03:19:42;;;;;;;27.50;22.52;;;;;;;7.54;100.00;99287.97;2034319;29;20227;-72
2022/05/05 03:20:43;;;;;;;31.70;22.52;;;;;;;7.55;100.00;99284.25;2025479;29;20196;-71
2022/05/05 03:21:45;;;;;;;29.40;22.63;;;;;;;7.57;100.00;99285.59;2017491;29;20267;-71
2022/05/05 03:22:46;;;;;;;24.85;22.38;;;;;;;7.59;100.00;99293.28;2025696;29;20203;-72
2022/05/05 03:23:47;;;;;;;25.80;23.13;;;;;;;7.61;100.00;99296.47;2033421;29;20299;-72
2022/05/05 03:24:48;;;;;;;26.58;23.63;;;;;;;7.63;100.00;99294.31;2025481;29;20710;-72
2022/05/05 03:25:51;;;;;;;25.87;23.13;;;;;;;7.67;100.00;99300.69;2017464;29;20691;-72
2022/05/05 03:26:53;;;;;;;26.30;23.65;;;;;;;7.69;100.00;99303.09;2025887;29;20444;-71
2022/05/05 03:27:55;;;;;;;27.50;23.45;;;;;;;7.72;100.00;99295.34;2025533;29;20208;-72
2022/05/05 03:28:57;;;;;;;26.90;22.67;;;;;;;7.76;100.00;99301.72;2025676;29;20259;-72
2022/05/05 03:29:59;;;;;;;29.88;23.50;;;;;;;7.81;100.00;99307.00;2034253;29;20215;-72
2022/05/05 03:31:00;;;;;;;25.75;23.13;;;;;;;7.86;100.00;99309.66;2033344;29;20207;-72
2022/05/05 03:32:03;;;;;;;28.73;23.47;;;;;;;7.88;100.00;99310.19;2033323;29;20246;-72
2022/05/05 03:33:05;;;;;;;26.30;23.58;;;;;;;7.91;100.00;99312.31;2034237;29;20530;-71
2022/05/05 03:34:07;;;;;;;31.83;23.70;;;;;;;7.93;100.00;99307.50;2033964;29;20203;-71
2022/05/05 03:35:09;;;;;;;26.40;23.70;;;;;;;7.98;100.00;99303.22;2034006;29;20615;-72
2022/05/05 03:36:11;;;;;;;28.23;23.90;;;;;;;8.02;100.00;99306.94;2035696;29;20651;-72
2022/05/05 03:37:13;;;;;;;25.70;22.98;;;;;;;8.09;100.00;99318.09;2042089;29;20610;-72
2022/05/05 03:38:16;;;;;;;26.10;23.40;;;;;;;8.12;100.00;99314.88;2041133;29;20217;-72
2022/05/05 03:39:18;;;;;;;25.58;22.60;;;;;;;8.16;100.00;99318.56;2041100;29;20207;-72
2022/05/05 03:40:20;;;;;;;26.77;23.38;;;;;;;8.19;100.00;99312.72;2041396;29;20183;-72
2022/05/05 03:41:21;;;;;;;27.30;23.67;;;;;;;8.22;100.00;99315.59;2041898;29;20677;-72
2022/05/05 03:42:24;;;;;;;26.17;23.47;;;;;;;8.26;100.00;99318.53;2041881;29;20539;-72
2022/05/05 03:43:25;;;;;;;26.45;23.23;;;;;;;8.31;100.00;99315.81;2041745;29;20632;-72
2022/05/05 03:44:27;;;;;;;27.77;24.60;;;;;;;8.34;100.00;99314.47;2041736;29;20187;-72
2022/05/05 03:45:28;;;;;;;26.73;24.02;;;;;;;8.38;100.00;99319.00;2032955;29;20239;-72
2022/05/05 03:46:32;;;;;;;28.15;24.15;;;;;;;8.41;100.00;99321.09;2024894;29;20208;-72
2022/05/05 03:47:33;;;;;;;33.65;24.27;;;;;;;8.43;100.00;99319.00;2025940;29;20664;-72
2022/05/05 03:48:35;;;;;;;27.10;24.03;;;;;;;8.46;100.00;99322.97;2034388;29;20300;-72
2022/05/05 03:49:39;;;;;;;32.25;24.23;;;;;;;8.52;100.00;99315.75;2043556;29;20245;-71
2022/05/05 03:50:41;;;;;;;32.00;23.85;;;;;;;8.56;100.00;99316.78;2043329;29;20202;-72
2022/05/05 03:51:44;;;;;;;29.48;24.13;;;;;;;8.59;100.00;99311.69;2034374;29;20275;-72
2022/05/05 03:52:48;;;;;;;32.60;23.90;;;;;;;8.63;100.00;99322.59;2026728;29;20212;-72
2022/05/05 03:53:50;;;;;;;33.17;23.88;;;;;;;8.65;100.00;99318.56;2035054;29;20188;-72
2022/05/05 03:54:50;;;;;;;41.08;25.10;;;;;;;8.67;100.00;99323.59;2033949;29;20290;-72
2022/05/05 03:55:52;;;;;;;27.67;23.40;;;;;;;8.69;100.00;99321.50;2035023;29;20199;-72
2022/05/05 03:56:57;;;;;;;26.40;23.50;;;;;;;8.71;100.00;99320.13;2042333;29;20215;-72
2022/05/05 03:58:01;;;;;;;32.65;23.30;;;;;;;8.71;100.00;99314.03;2042151;29;20191;-72
2022/05/05 03:59:03;;;;;;;29.83;22.73;;;;;;;8.72;100.00;99313.75;2035567;29;20192;-72
2022/05/05 04:00:05;;;;;;;30.95;22.92;;;;;;;8.77;100.00;99323.53;2034751;29;20204;-73
2022/05/05 04:01:14;;;;;;;28.10;22.48;;;;;;;8.84;100.00;99320.56;2034939;29;20205;-72
2022/05/05 04:02:16;;;;;;;25.05;22.48;;;;;;;8.83;100.00;99316.31;2035380;29;20196;-72
2022/05/05 04:03:32;;;;;;;27.45;22.38;;;;;;;8.87;100.00;99312.84;2034692;29;20219;-72
2022/05/05 04:04:34;;;;;;;25.45;22.75;;;;;;;8.90;100.00;99314.94;2035336;29;20176;-72
2022/05/05 04:05:35;;;;;;;25.45;22.70;;;;;;;8.93;100.00;99319.69;2035322;29;20566;-72
2022/05/05 04:06:37;;;;;;;27.13;22.37;;;;;;;8.92;100.00;99309.31;2035123;29;20331;-72
2022/05/05 04:07:38;;;;;;;27.13;23.23;;;;;;;8.94;100.00;99313.28;2035500;29;20226;-72
2022/05/05 04:08:40;;;;;;;28.87;23.50;;;;;;;8.92;100.00;99310.13;2035303;29;20196;-72
2022/05/05 04:09:41;;;;;;;27.23;22.23;;;;;;;8.96;100.00;99315.69;2035476;29;20204;-71
2022/05/05 04:10:42;;;;;;;26.43;21.27;;;;;;;8.95;100.00;99309.59;2034662;29;20284;-72
2022/05/05 04:11:45;;;;;;;25.65;22.90;;;;;;;8.97;100.00;99318.06;2034919;29;20551;-71
2022/05/05 04:12:45;;;;;;;27.48;23.85;;;;;;;8.93;100.00;99317.03;2035223;29;20311;-72
2022/05/05 04:13:52;;;;;;;26.97;24.37;;;;;;;8.96;100.00;99313.84;2035229;29;20199;-72
2022/05/05 04:14:53;;;;;;;31.38;25.33;;;;;;;8.99;100.00;99318.59;2035399;29;20196;-71
2022/05/05 04:15:55;;;;;;;31.60;25.60;;;;;;;9.03;100.00;99321.47;2033787;29;20243;-71
2022/05/05 04:16:55;;;;;;;29.70;25.50;;;;;;;9.03;100.00;99316.97;2026650;29;20671;-71
2022/05/05 04:17:57;;;;;;;29.77;26.00;;;;;;;9.03;100.00;99316.97;2026998;29;20612;-71
2022/05/05 04:19:03;;;;;;;29.38;26.10;;;;;;;9.09;100.00;99320.38;2026434;29;20589;-71
2022/05/05 04:20:05;;;;;;;30.27;25.27;;;;;;;9.14;100.00;99324.88;2034887;29;20183;-71
2022/05/05 04:21:07;;;;;;;31.10;26.05;;;;;;;9.16;100.00;99330.69;2034075;29;20670;-71
2022/05/05 04:22:10;;;;;;;30.15;25.60;;;;;;;9.19;100.00;99325.59;2026923;29;20238;-71
2022/05/05 04:23:11;;;;;;;31.83;26.50;;;;;;;9.21;100.00;99330.63;2034706;29;20204;-72
2022/05/05 04:24:12;;;;;;;29.90;26.20;;;;;;;9.23;100.00;99328.50;2042696;29;20195;-71
2022/05/05 04:25:16;;;;;;;33.47;28.00;;;;;;;9.24;100.00;99322.91;2034222;29;20210;-72
2022/05/05 04:26:18;;;;;;;36.38;27.65;;;;;;;9.27;100.00;99317.00;2042345;29;20227;-71
2022/05/05 04:27:19;;;;;;;30.27;26.45;;;;;;;9.28;100.00;99318.59;2050269;29;20186;-71
2022/05/05 04:28:22;;;;;;;34.67;26.27;;;;;;;9.30;100.00;99329.78;2035344;29;20191;-71
2022/05/05 04:29:25;;;;;;;36.38;27.58;;;;;;;9.32;100.00;99326.81;2035089;29;20219;-72
2022/05/05 04:30:26;;;;;;;29.88;26.67;;;;;;;9.38;100.00;99328.34;2035335;29;20604;-71
2022/05/05 04:31:30;;;;;;;29.73;26.10;;;;;;;9.44;100.00;99321.91;2035309;29;20196;-72
2022/05/05 04:32:32;;;;;;;33.13;26.17;;;;;;;9.49;100.00;99332.50;2033618;29;20371;-72
2022/05/05 04:33:34;;;;;;;33.60;26.13;;;;;;;9.55;100.00;99326.03;2034783;29;20194;-71
2022/05/05 04:34:35;;;;;;;34.85;25.17;;;;;;;9.58;100.00;99332.69;2033955;29;20714;-71
2022/05/05 04:35:38;;;;;;;27.80;24.83;;;;;;;9.58;100.00;99338.03;2034615;29;20730;-72
2022/05/05 04:36:39;;;;;;;27.95;24.75;;;;;;;9.61;100.00;99334.78;2034105;29;20591;-71
2022/05/05 04:37:41;;;;;;;28.20;25.00;;;;;;;9.67;100.00;99335.53;2034713;29;20247;-71
2022/05/05 04:38:43;;;;;;;32.58;25.63;;;;;;;9.72;100.00;99336.25;2035154;29;20663;-71
2022/05/05 04:39:45;;;;;;;32.20;26.02;;;;;;;9.75;100.00;99334.91;2035156;29;20610;-71
2022/05/05 04:40:48;;;;;;;29.83;26.48;;;;;;;9.79;100.00;99338.59;2035350;29;20195;-74
2022/05/05 04:41:49;;;;;;;30.65;25.00;;;;;;;9.85;100.00;99334.78;2034558;29;20195;-71
2022/05/05 04:42:52;;;;;;;28.42;24.30;;;;;;;9.86;100.00;99334.50;2042397;29;20749;-70
2022/05/05 04:43:53;;;;;;;27.10;23.38;;;;;;;9.89;100.00;99339.25;2049817;29;20772;-71
2022/05/05 04:44:56;;;;;;;37.70;25.80;;;;;;;9.94;100.00;99333.09;2042244;29;20557;-72
2022/05/05 04:45:59;;;;;;;36.65;25.15;;;;;;;10.01;100.00;99333.53;2042244;29;20265;-71
2022/05/05 04:47:01;;;;;;;29.98;23.90;;;;;;;10.07;100.00;99342.25;2035052;29;20202;-71
2022/05/05 04:48:03;;;;;;;31.75;24.33;;;;;;;10.11;100.00;99343.28;2035059;29;20191;-71
2022/05/05 04:49:08;;;;;;;27.88;22.75;;;;;;;10.15;100.00;99337.09;2035179;29;20192;-71
2022/05/05 04:50:09;;;;;;;29.77;23.85;;;;;;;10.25;100.00;99343.41;2035010;29;20191;-71
2022/05/05 04:51:11;;;;;;;30.13;24.15;;;;;;;10.28;100.00;99346.28;2041745;29;20203;-71
2022/05/05 04:52:11;;;;;;;29.17;23.63;;;;;;;10.31;100.00;99340.38;2042501;29;20179;-72
2022/05/05 04:53:14;;;;;;;27.60;23.37;;;;;;;10.32;100.00;99341.97;2034019;29;20227;-71
2022/05/05 04:54:16;;;;;;;32.75;24.02;;;;;;;10.39;100.00;99341.63;2034068;29;20220;-71
2022/05/05 04:55:24;;;;;;;34.42;24.13;;;;;;;10.46;100.00;99342.06;2042232;29;20187;-71
2022/05/05 04:56:26;;;;;;;34.42;24.60;;;;;;;10.47;100.00;99340.97;2042130;29;20238;-70
2022/05/05 04:57:28;;;;;;;31.10;23.65;;;;;;;10.52;100.00;99340.13;2042044;29;20278;-71